createdAt,value
2023-05-05T04:00:27.338Z,10.52
2023-05-05T04:03:12.367Z,10.62
2023-05-05T04:05:56.994Z,10.38
2023-05-05T04:08:41.936Z,10.51
2023-05-05T04:11:26.748Z,10.57
2023-05-05T04:14:11.557Z,10.69
2023-05-05T04:16:56.454Z,10.85
2023-05-05T04:19:41.250Z,10.63
2023-05-05T04:22:26.268Z,10.91
2023-05-05T04:25:11.199Z,10.36
2023-05-05T04:27:56.126Z,10.80
2023-05-05T04:30:40.963Z,10.81
2023-05-05T04:33:25.935Z,10.93
2023-05-05T04:36:10.806Z,11.08
2023-05-05T04:38:55.754Z,11.03
2023-05-05T04:41:40.665Z,11.33
2023-05-05T04:44:25.453Z,11.57
2023-05-05T04:47:12.566Z,11.68
2023-05-05T04:49:58.932Z,11.56
2023-05-05T04:52:43.592Z,11.83
2023-05-05T04:55:28.474Z,11.87
2023-05-05T04:58:13.248Z,12.06
2023-05-05T05:00:58.290Z,11.83
2023-05-05T05:03:43.038Z,11.75
2023-05-05T05:06:27.982Z,11.93
2023-05-05T05:09:12.829Z,12.10
2023-05-05T05:11:57.732Z,12.30
2023-05-05T05:14:42.564Z,12.38
2023-05-05T05:17:27.339Z,12.46
2023-05-05T05:20:12.242Z,12.49
2023-05-05T05:22:57.090Z,12.56
2023-05-05T05:25:42.037Z,12.29
2023-05-05T05:28:26.954Z,12.69
2023-05-05T05:31:11.796Z,12.56
2023-05-05T05:33:56.685Z,12.70
2023-05-05T05:36:41.608Z,13.02
2023-05-05T05:39:26.483Z,13.30
2023-05-05T05:42:11.273Z,13.89
2023-05-05T05:44:56.129Z,13.95
2023-05-05T05:47:40.977Z,14.08
2023-05-05T05:50:25.892Z,14.21
2023-05-05T05:53:10.650Z,14.20
2023-05-05T05:55:55.640Z,14.44
2023-05-05T05:58:40.540Z,14.51
2023-05-05T06:01:25.530Z,14.52
2023-05-05T06:04:10.392Z,14.93
2023-05-05T06:06:55.319Z,15.13
2023-05-05T06:09:40.211Z,15.07
2023-05-05T06:12:24.918Z,15.21
2023-05-05T06:15:09.803Z,15.16
2023-05-05T06:17:54.633Z,15.26
2023-05-05T06:20:39.453Z,15.70
2023-05-05T06:23:24.411Z,15.76
2023-05-05T06:26:09.322Z,15.73
2023-05-05T06:28:54.103Z,15.97
2023-05-05T06:31:39.159Z,16.24
2023-05-05T06:34:24.010Z,16.36
2023-05-05T06:37:08.792Z,16.43
2023-05-05T06:39:53.700Z,16.68
2023-05-05T06:42:38.434Z,16.71
2023-05-05T06:45:23.269Z,17.02
2023-05-05T06:48:08.148Z,16.98
2023-05-05T06:50:53.064Z,17.17
2023-05-05T06:53:37.895Z,17.37
2023-05-05T06:56:22.804Z,17.41
2023-05-05T06:59:07.658Z,17.64
2023-05-05T07:01:52.715Z,17.50
2023-05-05T07:04:37.743Z,17.55
2023-05-05T07:07:22.524Z,17.58
2023-05-05T07:10:07.965Z,17.66
2023-05-05T07:12:53.450Z,16.87
2023-05-05T07:15:38.143Z,16.76
2023-05-05T07:18:22.974Z,16.54
2023-05-05T07:21:07.817Z,16.62
2023-05-05T07:23:52.525Z,16.86
2023-05-05T07:26:37.384Z,17.14
2023-05-05T07:29:22.333Z,17.08
2023-05-05T07:32:07.130Z,16.93
2023-05-05T07:34:51.940Z,17.17
2023-05-05T07:37:36.899Z,17.57
2023-05-05T07:40:21.591Z,17.69
2023-05-05T07:43:06.369Z,17.58
2023-05-05T07:45:51.361Z,17.95
2023-05-05T07:48:36.259Z,17.11
2023-05-05T07:51:21.193Z,17.57
2023-05-05T07:54:06.194Z,17.70
2023-05-05T07:56:51.039Z,17.71
2023-05-05T07:59:36.086Z,17.79
2023-05-05T08:02:20.867Z,17.68
2023-05-05T08:05:05.886Z,17.99
2023-05-05T08:07:50.523Z,17.98
2023-05-05T08:10:35.414Z,18.00
2023-05-05T08:13:20.223Z,17.34
2023-05-05T08:16:05.114Z,18.07
2023-05-05T08:18:49.933Z,17.82
2023-05-05T08:21:34.896Z,17.83
2023-05-05T08:24:19.760Z,18.03
2023-05-05T08:27:04.530Z,17.26
2023-05-05T08:29:49.396Z,17.77
2023-05-05T08:32:34.178Z,18.19
2023-05-05T08:35:19.134Z,18.33
2023-05-05T08:38:03.967Z,18.32
2023-05-05T08:40:48.940Z,18.43
2023-05-05T08:43:33.740Z,18.67
2023-05-05T08:46:18.420Z,18.41
2023-05-05T08:49:03.485Z,18.07
2023-05-05T08:51:48.386Z,18.03
2023-05-05T08:54:33.305Z,17.98
2023-05-05T08:57:18.241Z,18.01
2023-05-05T09:00:03.283Z,17.87
2023-05-05T09:02:48.210Z,17.75
2023-05-05T09:05:33.001Z,18.19
2023-05-05T09:08:17.987Z,18.93
2023-05-05T09:11:02.659Z,18.56
2023-05-05T09:13:47.520Z,18.46
2023-05-05T09:16:32.306Z,19.31
2023-05-05T09:19:17.420Z,19.16
2023-05-05T09:22:02.199Z,19.80
2023-05-05T09:24:47.024Z,19.98
2023-05-05T09:27:31.912Z,18.94
2023-05-05T09:30:16.690Z,18.96
2023-05-05T09:33:01.573Z,18.72
2023-05-05T09:35:46.484Z,18.88
2023-05-05T09:38:31.298Z,18.56
2023-05-05T09:41:16.161Z,19.62
2023-05-05T09:44:01.234Z,20.03
2023-05-05T09:46:46.026Z,19.26
2023-05-05T09:49:30.951Z,19.37
2023-05-05T09:52:15.810Z,19.35
2023-05-05T09:55:00.771Z,19.46
2023-05-05T09:57:45.588Z,20.13
2023-05-05T10:00:30.425Z,20.59
2023-05-05T10:03:15.444Z,20.19
2023-05-05T10:06:00.432Z,20.37
2023-05-05T10:08:46.286Z,21.33
2023-05-05T10:11:31.144Z,21.36
2023-05-05T10:14:16.010Z,21.25
2023-05-05T10:17:00.831Z,20.52
2023-05-05T10:19:45.788Z,20.16
2023-05-05T10:22:30.628Z,20.05
2023-05-05T10:25:15.446Z,19.97
2023-05-05T10:28:00.468Z,20.87
2023-05-05T10:30:45.346Z,20.76
2023-05-05T10:33:32.149Z,20.52
2023-05-05T10:36:17.333Z,21.46
2023-05-05T10:39:02.349Z,21.36
2023-05-05T10:41:47.248Z,21.41
2023-05-05T10:44:32.130Z,21.83
2023-05-05T10:47:17.156Z,21.62
2023-05-05T10:50:01.915Z,21.12
2023-05-05T10:52:46.866Z,21.50
2023-05-05T10:55:31.743Z,21.75
2023-05-05T10:58:16.666Z,21.77
2023-05-05T11:01:01.615Z,22.57
2023-05-05T11:03:46.422Z,21.60
2023-05-05T11:06:31.378Z,21.79
2023-05-05T11:09:16.326Z,22.88
2023-05-05T11:12:01.327Z,23.43
2023-05-05T11:14:46.131Z,23.29
2023-05-05T11:17:31.111Z,22.78
2023-05-05T11:20:15.884Z,22.64
2023-05-05T11:23:00.900Z,22.41
2023-05-05T11:25:45.764Z,22.89
2023-05-05T11:28:30.680Z,23.46
2023-05-05T11:31:15.530Z,23.91
2023-05-05T11:34:00.380Z,23.32
2023-05-05T11:36:45.256Z,23.26
2023-05-05T11:39:30.119Z,23.08
2023-05-05T11:42:15.184Z,23.78
2023-05-05T11:45:00.137Z,24.02
2023-05-05T11:47:45.074Z,24.14
2023-05-05T11:50:29.823Z,22.52
2023-05-05T11:53:14.737Z,21.94
2023-05-05T11:55:59.584Z,22.45
2023-05-05T11:58:44.540Z,22.56
2023-05-05T12:01:29.509Z,22.52
2023-05-05T12:04:14.418Z,22.65
2023-05-05T12:06:59.138Z,22.84
2023-05-05T12:09:43.772Z,23.01
2023-05-05T12:12:28.781Z,22.34
2023-05-05T12:15:13.506Z,22.62
2023-05-05T12:18:00.103Z,21.52
2023-05-05T12:20:46.899Z,21.98
2023-05-05T12:23:31.901Z,21.73
2023-05-05T12:26:16.590Z,22.12
2023-05-05T12:29:01.487Z,21.10
2023-05-05T12:31:46.462Z,21.20
2023-05-05T12:34:31.313Z,22.01
2023-05-05T12:37:16.315Z,21.35
2023-05-05T12:40:01.253Z,21.86
2023-05-05T12:42:46.469Z,21.84
2023-05-05T12:45:31.237Z,21.46
2023-05-05T12:48:15.948Z,20.48
2023-05-05T12:51:00.919Z,21.06
2023-05-05T12:53:45.721Z,22.11
2023-05-05T12:56:30.579Z,22.51
2023-05-05T12:59:15.415Z,22.61
2023-05-05T13:02:00.452Z,21.89
2023-05-05T13:04:45.238Z,22.78
2023-05-05T13:07:29.996Z,23.31
2023-05-05T13:10:14.926Z,22.65
2023-05-05T13:12:59.731Z,21.89
2023-05-05T13:15:44.677Z,21.12
2023-05-05T13:18:29.516Z,20.86
2023-05-05T13:21:14.474Z,21.11
2023-05-05T13:24:18.356Z,21.49
2023-05-05T13:27:03.798Z,21.41
2023-05-05T13:29:48.761Z,21.44
2023-05-05T13:32:33.697Z,20.90
2023-05-05T13:35:18.656Z,20.72
2023-05-05T13:38:03.611Z,20.56
2023-05-05T13:40:48.580Z,20.54
2023-05-05T13:43:33.514Z,19.87
2023-05-05T13:46:22.267Z,20.20
2023-05-05T13:49:07.055Z,20.37
2023-05-05T13:51:52.017Z,20.49
2023-05-05T13:54:36.929Z,20.48
2023-05-05T13:57:21.720Z,21.40
2023-05-05T14:00:06.494Z,21.70
2023-05-05T14:02:51.425Z,20.86
2023-05-05T14:05:36.301Z,20.24
2023-05-05T14:08:21.177Z,20.69
2023-05-05T14:11:06.148Z,21.27
2023-05-05T14:13:51.148Z,21.10
2023-05-05T14:16:36.052Z,21.59
2023-05-05T14:19:20.935Z,21.47
2023-05-05T14:22:05.992Z,21.79
2023-05-05T14:24:50.929Z,22.47
2023-05-05T14:27:35.985Z,22.35
2023-05-05T14:30:20.849Z,22.96
2023-05-05T14:33:05.753Z,22.05
2023-05-05T14:35:50.494Z,22.05
2023-05-05T14:38:35.388Z,21.47
2023-05-05T14:41:20.283Z,20.95
2023-05-05T14:44:05.141Z,20.76
2023-05-05T14:46:51.224Z,21.23
2023-05-05T14:49:35.933Z,21.00
2023-05-05T14:52:20.894Z,20.90
2023-05-05T14:55:05.709Z,20.64
2023-05-05T14:57:50.592Z,20.31
2023-05-05T15:00:35.446Z,20.31
2023-05-05T15:03:20.556Z,20.57
2023-05-05T15:06:05.406Z,20.30
2023-05-05T15:08:50.180Z,20.54
2023-05-05T15:11:34.908Z,20.80
2023-05-05T15:14:19.652Z,21.58
2023-05-05T15:17:04.580Z,22.14
2023-05-05T15:19:49.509Z,22.31
2023-05-05T15:22:34.652Z,21.51
2023-05-05T15:25:19.480Z,21.64
2023-05-05T15:28:04.419Z,21.55
2023-05-05T15:30:49.295Z,22.23
2023-05-05T15:33:34.095Z,22.45
2023-05-05T15:36:19.049Z,22.71
2023-05-05T15:39:04.017Z,22.42
2023-05-05T15:41:48.989Z,22.74
2023-05-05T15:44:33.818Z,22.88
2023-05-05T15:47:18.819Z,23.10
2023-05-05T15:50:03.616Z,23.37
2023-05-05T15:52:50.073Z,22.83
2023-05-05T15:55:34.876Z,23.04
2023-05-05T15:58:19.680Z,23.31
2023-05-05T16:01:04.652Z,21.94
2023-05-05T16:03:49.437Z,21.55
2023-05-05T16:06:34.373Z,21.66
2023-05-05T16:09:19.130Z,21.46
2023-05-05T16:12:04.055Z,20.91
2023-05-05T16:14:48.901Z,21.23
2023-05-05T16:17:33.737Z,21.17
2023-05-05T16:20:18.618Z,21.81
2023-05-05T16:23:03.481Z,21.65
2023-05-05T16:25:48.414Z,21.41
2023-05-05T16:28:33.208Z,21.31
2023-05-05T16:31:18.366Z,21.18
2023-05-05T16:34:03.160Z,20.51
2023-05-05T16:36:48.051Z,20.00
2023-05-05T16:39:33.027Z,19.96
2023-05-05T16:42:17.968Z,20.51
2023-05-05T16:45:02.901Z,20.43
2023-05-05T16:47:47.716Z,20.60
2023-05-05T16:50:32.569Z,20.21
2023-05-05T16:53:17.302Z,20.67
2023-05-05T16:56:02.299Z,20.73
2023-05-05T16:58:47.114Z,20.82
2023-05-05T17:01:32.087Z,20.99
2023-05-05T17:04:16.950Z,20.77
2023-05-05T17:07:01.734Z,21.00
2023-05-05T17:09:46.547Z,21.03
2023-05-05T17:12:31.494Z,20.81
2023-05-05T17:15:16.449Z,20.60
2023-05-05T17:18:01.253Z,19.97
2023-05-05T17:20:46.075Z,19.15
2023-05-05T17:23:30.865Z,18.23
2023-05-05T17:26:15.846Z,18.16
2023-05-05T17:29:00.642Z,17.98
2023-05-05T17:31:45.502Z,18.28
2023-05-05T17:34:30.312Z,18.36
2023-05-05T17:37:15.212Z,18.11
2023-05-05T17:40:00.243Z,18.21
2023-05-05T17:42:45.092Z,18.27
2023-05-05T17:45:30.059Z,18.08
2023-05-05T17:48:14.837Z,17.81
2023-05-05T17:50:59.703Z,17.48
2023-05-05T17:53:44.662Z,17.82
2023-05-05T17:56:29.666Z,18.44
2023-05-05T17:59:14.557Z,18.50
2023-05-05T18:01:59.504Z,18.39
2023-05-05T18:04:44.389Z,18.39
2023-05-05T18:07:29.313Z,18.54
2023-05-05T18:10:14.297Z,18.13
2023-05-05T18:12:59.060Z,18.17
2023-05-05T18:15:44.131Z,18.13
2023-05-05T18:18:29.127Z,18.17
2023-05-05T18:21:14.039Z,18.10
2023-05-05T18:24:07.636Z,18.06
2023-05-05T18:27:03.365Z,17.80
2023-05-05T18:29:48.323Z,17.58
2023-05-05T18:32:33.213Z,17.69
2023-05-05T18:35:18.102Z,17.62
2023-05-05T18:38:03.072Z,17.62
2023-05-05T18:40:47.891Z,17.38
2023-05-05T18:43:32.800Z,17.02
2023-05-05T18:46:17.565Z,17.03
2023-05-05T18:49:02.431Z,16.87
2023-05-05T18:51:47.248Z,15.65
2023-05-05T18:54:32.178Z,16.15
2023-05-05T18:57:17.057Z,16.48
2023-05-05T19:00:01.913Z,16.57
2023-05-05T19:02:46.801Z,16.10
2023-05-05T19:05:31.723Z,15.70
2023-05-05T19:08:16.758Z,15.94
2023-05-05T19:11:01.548Z,16.04
2023-05-05T19:13:46.423Z,16.00
2023-05-05T19:16:31.339Z,15.99
2023-05-05T19:19:16.188Z,15.81
2023-05-05T19:22:03.012Z,15.90
2023-05-05T19:24:48.556Z,15.64
2023-05-05T19:27:33.577Z,15.38
2023-05-05T19:30:18.373Z,15.01
2023-05-05T19:33:03.389Z,15.19
2023-05-05T19:35:48.136Z,14.19
2023-05-05T19:38:33.001Z,14.26
2023-05-05T19:41:17.822Z,14.65
2023-05-05T19:44:02.622Z,14.53
2023-05-05T19:46:47.571Z,14.50
2023-05-05T19:49:32.523Z,14.65
2023-05-05T19:52:17.431Z,15.08
2023-05-05T19:55:02.322Z,14.98
2023-05-05T19:57:47.283Z,15.02
2023-05-05T20:00:32.045Z,14.94
2023-05-05T20:03:17.167Z,15.33
2023-05-05T20:06:02.010Z,15.21
2023-05-05T20:08:46.897Z,15.11
2023-05-05T20:11:31.820Z,15.10
2023-05-05T20:14:16.790Z,15.20
2023-05-05T20:17:01.517Z,15.24
2023-05-05T20:19:46.248Z,15.42
2023-05-05T20:22:31.128Z,15.41
2023-05-05T20:25:15.963Z,15.63
2023-05-05T20:28:00.848Z,14.94
2023-05-05T20:30:45.680Z,15.00
2023-05-05T20:33:30.583Z,15.15
2023-05-05T20:36:15.478Z,14.90
2023-05-05T20:39:00.302Z,15.05
2023-05-05T20:41:45.233Z,15.10
2023-05-05T20:44:30.055Z,15.15
2023-05-05T20:47:14.977Z,15.11
2023-05-05T20:49:59.787Z,15.25
2023-05-05T20:52:44.640Z,15.49
2023-05-05T20:55:29.389Z,15.58
2023-05-05T20:58:14.186Z,15.57
